Hai Hua — XUDB9 — position and weather

sailwx.info

Track history (hours):
 
Tides and Currents Weather Stations Pressure Air Temp Water Temp Dewpoint Dewpoint Depression Visibility Wind Speed Wind Dir Waves Ship Positions

Hai Hua

Last reported at 2014-Dec-19 16:30 UTC. Time now 2014-Dec-22 16:58 UTC.
Position N 34°06' E 134°46'.

Length 69 m; draft 4.8 m.

Type: Cargo ship. MMSI: 515171000.

Date/timePositionNaut miles runAvg speedWind from/ knotsBaromVisibWave heightAir tempDewpointWater temp
2014-Dec-19 16:30N 34°06' E 134°46'256 6.9
2014-Dec-18 03:33N 35°17' E 139°45'8 7.9
2014-Dec-18 02:33N 35°25' E 139°44'9 8.4
2014-Dec-18 01:28N 35°32' E 139°51'3 0.9
2014-Dec-17 22:29N 35°35' E 139°50'0 0.0
2014-Dec-17 21:08N 35°35' E 139°50'0 0.0
2014-Dec-17 20:14N 35°35' E 139°50'0 0.1
2014-Dec-17 19:33N 35°35' E 139°50'0 0.0
2014-Dec-17 18:33N 35°35' E 139°50'0 0.0
2014-Dec-17 17:29N 35°35' E 139°50'0 0.0
2014-Dec-17 16:33N 35°35' E 139°50'0 0.0
2014-Dec-17 15:33N 35°35' E 139°50'0 0.0
2014-Dec-17 12:27N 35°35' E 139°50'0 0.0
2014-Dec-17 11:23N 35°35' E 139°50'0 0.0
2014-Dec-17 09:15N 35°35' E 139°50'0 0.0
2014-Dec-17 08:20N 35°35' E 139°50'3 0.1
2014-Dec-15 22:05N 35°37' E 139°48'3 0.4
2014-Dec-15 13:30N 35°34' E 139°50'0 0.1
2014-Dec-15 11:14N 35°34' E 139°51'5 7.0
2014-Dec-15 10:33N 35°30' E 139°52'7 6.9
2014-Dec-15 09:34N 35°30' E 139°44'0 0.2
2014-Dec-15 08:28N 35°30' E 139°43'0 0.0
2014-Dec-15 07:31N 35°30' E 139°43'0 0.0
2014-Dec-15 06:28N 35°30' E 139°43'0 0.0
2014-Dec-15 05:28N 35°30' E 139°43'0 0.0
2014-Dec-15 04:31N 35°30' E 139°43'0 0.0
2014-Dec-15 03:28N 35°30' E 139°43'0 0.0
2014-Dec-15 02:22N 35°30' E 139°43'0 0.0
2014-Dec-15 01:31N 35°30' E 139°43'0 0.0
2014-Dec-15 00:13N 35°30' E 139°43'0 0.0
2014-Dec-14 23:31N 35°30' E 139°43'0 0.0
2014-Dec-14 22:31N 35°30' E 139°43'2 2.2
2014-Dec-14 21:33N 35°28' E 139°42'1 1.0
2014-Dec-14 20:32N 35°27' E 139°42'0 0.0
2014-Dec-14 19:32N 35°27' E 139°42'0 0.0
2014-Dec-14 18:26N 35°27' E 139°42'0 0.0
2014-Dec-14 17:32N 35°27' E 139°42'0 0.0
2014-Dec-14 16:32N 35°27' E 139°42'0 0.0
2014-Dec-14 15:32N 35°27' E 139°42'0 0.0
2014-Dec-14 14:32N 35°27' E 139°42'0 0.0
2014-Dec-14 13:32N 35°27' E 139°42'0 0.0
2014-Dec-14 12:32N 35°27' E 139°42'0 0.0
2014-Dec-14 11:32N 35°27' E 139°42'0 0.0
2014-Dec-14 10:32N 35°27' E 139°42'0 0.0
2014-Dec-14 09:32N 35°27' E 139°42'0 0.0
2014-Dec-14 08:32N 35°27' E 139°42'0 0.0
2014-Dec-14 07:32N 35°27' E 139°42'0 0.0
2014-Dec-14 06:32N 35°27' E 139°42'0 0.0
2014-Dec-14 05:32N 35°27' E 139°42'0 0.0
2014-Dec-14 04:32N 35°27' E 139°42'0 0.0
2014-Dec-14 03:32N 35°27' E 139°42'0 0.0
2014-Dec-14 02:32N 35°27' E 139°42'0 0.0
2014-Dec-14 01:32N 35°27' E 139°42'0 0.0
2014-Dec-14 00:32N 35°27' E 139°42'0 0.1
2014-Dec-13 23:32N 35°27' E 139°42'0 0.1
2014-Dec-13 22:32N 35°27' E 139°42'10 2.4
2014-Dec-13 18:16N 35°17' E 139°46'6 7.6
2014-Dec-13 17:31N 35°11' E 139°47'  
Track history (hours):
 
Tides and Currents Weather Stations Pressure Air Temp Water Temp Dewpoint Dewpoint Depression Visibility Wind Speed Wind Dir Waves Ship Positions

Hai Hua

Last reported at 2014-Dec-19 16:30 UTC. Time now 2014-Dec-22 16:58 UTC.
Position N 34°06' E 134°46'.

Length 69 m; draft 4.8 m.

Type: Cargo ship. MMSI: 515171000.

Date/timePositionNaut miles runAvg speedWind from/ knotsBaromVisibWave heightAir tempDewpointWater temp
2014-Dec-19 16:30N 34°06' E 134°46'256 6.9
2014-Dec-18 03:33N 35°17' E 139°45'8 7.9
2014-Dec-18 02:33N 35°25' E 139°44'9 8.4
2014-Dec-18 01:28N 35°32' E 139°51'3 0.9
2014-Dec-17 22:29N 35°35' E 139°50'0 0.0
2014-Dec-17 21:08N 35°35' E 139°50'0 0.0
2014-Dec-17 20:14N 35°35' E 139°50'0 0.1
2014-Dec-17 19:33N 35°35' E 139°50'0 0.0
2014-Dec-17 18:33N 35°35' E 139°50'0 0.0
2014-Dec-17 17:29N 35°35' E 139°50'0 0.0
2014-Dec-17 16:33N 35°35' E 139°50'0 0.0
2014-Dec-17 15:33N 35°35' E 139°50'0 0.0
2014-Dec-17 12:27N 35°35' E 139°50'0 0.0
2014-Dec-17 11:23N 35°35' E 139°50'0 0.0
2014-Dec-17 09:15N 35°35' E 139°50'0 0.0
2014-Dec-17 08:20N 35°35' E 139°50'3 0.1
2014-Dec-15 22:05N 35°37' E 139°48'3 0.4
2014-Dec-15 13:30N 35°34' E 139°50'0 0.1
2014-Dec-15 11:14N 35°34' E 139°51'5 7.0
2014-Dec-15 10:33N 35°30' E 139°52'7 6.9
2014-Dec-15 09:34N 35°30' E 139°44'0 0.2
2014-Dec-15 08:28N 35°30' E 139°43'0 0.0
2014-Dec-15 07:31N 35°30' E 139°43'0 0.0
2014-Dec-15 06:28N 35°30' E 139°43'0 0.0
2014-Dec-15 05:28N 35°30' E 139°43'0 0.0
2014-Dec-15 04:31N 35°30' E 139°43'0 0.0
2014-Dec-15 03:28N 35°30' E 139°43'0 0.0
2014-Dec-15 02:22N 35°30' E 139°43'0 0.0
2014-Dec-15 01:31N 35°30' E 139°43'0 0.0
2014-Dec-15 00:13N 35°30' E 139°43'0 0.0
2014-Dec-14 23:31N 35°30' E 139°43'0 0.0
2014-Dec-14 22:31N 35°30' E 139°43'2 2.2
2014-Dec-14 21:33N 35°28' E 139°42'1 1.0
2014-Dec-14 20:32N 35°27' E 139°42'0 0.0
2014-Dec-14 19:32N 35°27' E 139°42'0 0.0
2014-Dec-14 18:26N 35°27' E 139°42'0 0.0
2014-Dec-14 17:32N 35°27' E 139°42'0 0.0
2014-Dec-14 16:32N 35°27' E 139°42'0 0.0
2014-Dec-14 15:32N 35°27' E 139°42'0 0.0
2014-Dec-14 14:32N 35°27' E 139°42'0 0.0
2014-Dec-14 13:32N 35°27' E 139°42'0 0.0
2014-Dec-14 12:32N 35°27' E 139°42'0 0.0
2014-Dec-14 11:32N 35°27' E 139°42'0 0.0
2014-Dec-14 10:32N 35°27' E 139°42'0 0.0
2014-Dec-14 09:32N 35°27' E 139°42'0 0.0
2014-Dec-14 08:32N 35°27' E 139°42'0 0.0
2014-Dec-14 07:32N 35°27' E 139°42'0 0.0
2014-Dec-14 06:32N 35°27' E 139°42'0 0.0
2014-Dec-14 05:32N 35°27' E 139°42'0 0.0
2014-Dec-14 04:32N 35°27' E 139°42'0 0.0
2014-Dec-14 03:32N 35°27' E 139°42'0 0.0
2014-Dec-14 02:32N 35°27' E 139°42'0 0.0
2014-Dec-14 01:32N 35°27' E 139°42'0 0.0
2014-Dec-14 00:32N 35°27' E 139°42'0 0.1
2014-Dec-13 23:32N 35°27' E 139°42'0 0.1
2014-Dec-13 22:32N 35°27' E 139°42'10 2.4
2014-Dec-13 18:16N 35°17' E 139°46'6 7.6
2014-Dec-13 17:31N 35°11' E 139°47'  

Dump ship's entire track history